Time;durP1;ratioP1;P1;durP2;ratioP2;P2;SDS_P1;SDS_P2;PMS_P1;PMS_P2;Temp;Humidity;BMP_temperature;BMP_pressure;BME280_temperature;BME280_humidity;BME280_pressure;Samples;Min_cycle;Max_cycle;Signal;HPM_P1;HPM_P2
2022/08/20 00:00:16;;;;;;;19.35;13.95;;;;;;;;;;5070914;28;20341;-71
2022/08/20 00:02:47;;;;;;;16.67;13.13;;;;;;;;;;5070539;28;20025;-71
2022/08/20 00:05:14;;;;;;;18.58;13.57;;;;;;;;;;5070416;28;20505;-71
2022/08/20 00:07:39;;;;;;;17.05;13.20;;;;;;;;;;5070339;28;20032;-71
2022/08/20 00:10:06;;;;;;;21.23;13.05;;;;;;;;;;5070359;28;20028;-70
2022/08/20 00:12:33;;;;;;;18.30;12.30;;;;;;;;;;5070373;28;20435;-71
2022/08/20 00:14:59;;;;;;;20.60;12.07;;;;;;;;;;5072217;28;20082;-70
2022/08/20 00:17:25;;;;;;;16.27;11.43;;;;;;;;;;5073258;28;20024;-70
2022/08/20 00:19:51;;;;;;;15.15;10.77;;;;;;;;;;5072508;28;20393;-70
2022/08/20 00:22:17;;;;;;;19.33;12.32;;;;;;;;;;5073923;28;20032;-72
2022/08/20 00:24:43;;;;;;;20.73;12.77;;;;;;;;;;5074321;28;20053;-71
2022/08/20 00:27:09;;;;;;;17.60;13.02;;;;;;;;;;5073489;28;20381;-71
2022/08/20 00:29:35;;;;;;;19.05;12.38;;;;;;;;;;5074343;28;20070;-70
2022/08/20 00:32:01;;;;;;;17.42;12.20;;;;;;;;;;5073880;28;20449;-70
2022/08/20 00:34:27;;;;;;;15.85;11.38;;;;;;;;;;5074117;28;20039;-70
2022/08/20 00:36:53;;;;;;;14.10;10.93;;;;;;;;;;5073910;28;20028;-72
2022/08/20 00:39:19;;;;;;;14.85;10.48;;;;;;;;;;5072427;28;20039;-70
2022/08/20 00:41:45;;;;;;;13.60;10.30;;;;;;;;;;5073983;28;20029;-70
2022/08/20 00:44:11;;;;;;;13.23;9.82;;;;;;;;;;5073560;28;20039;-71
2022/08/20 00:46:37;;;;;;;12.68;9.43;;;;;;;;;;5073389;28;20377;-71
2022/08/20 00:49:06;;;;;;;14.63;9.82;;;;;;;;;;5073805;28;20066;-71
2022/08/20 00:51:41;;;;;;;10.93;8.32;;;;;;;;;;5073665;28;20487;-72
2022/08/20 00:54:07;;;;;;;12.65;9.07;;;;;;;;;;5073636;28;20036;-72
2022/08/20 00:56:34;;;;;;;13.20;9.23;;;;;;;;;;5073372;28;20029;-70
2022/08/20 00:59:01;;;;;;;11.27;8.13;;;;;;;;;;5073263;28;20144;-72
2022/08/20 01:01:27;;;;;;;14.77;8.15;;;;;;;;;;5073464;28;20035;-72
2022/08/20 01:03:55;;;;;;;11.27;7.38;;;;;;;;;;5073412;28;20020;-71
2022/08/20 01:06:22;;;;;;;12.43;7.60;;;;;;;;;;5073594;28;20024;-71
2022/08/20 01:08:48;;;;;;;11.48;7.53;;;;;;;;;;5073648;28;20063;-72
2022/08/20 01:11:20;;;;;;;12.93;7.70;;;;;;;;;;5073854;28;20020;-70
2022/08/20 01:13:47;;;;;;;11.63;8.13;;;;;;;;;;5073604;28;20048;-72
2022/08/20 01:16:24;;;;;;;10.02;6.95;;;;;;;;;;5073870;28;20476;-72
2022/08/20 01:18:50;;;;;;;8.52;6.57;;;;;;;;;;5074587;28;20103;-72
2022/08/20 01:21:22;;;;;;;8.60;6.95;;;;;;;;;;5073489;28;20024;-72
2022/08/20 01:23:55;;;;;;;8.05;6.15;;;;;;;;;;5073358;28;20028;-71
2022/08/20 01:26:21;;;;;;;12.18;7.30;;;;;;;;;;5073460;28;20028;-72
2022/08/20 01:28:49;;;;;;;10.85;6.78;;;;;;;;;;5073313;28;20020;-71
2022/08/20 01:31:16;;;;;;;9.23;6.47;;;;;;;;;;5073785;28;20042;-71
2022/08/20 01:33:43;;;;;;;12.32;6.78;;;;;;;;;;5074649;28;20032;-72
2022/08/20 01:36:09;;;;;;;7.65;6.30;;;;;;;;;;5074195;28;20040;-71
2022/08/20 01:38:35;;;;;;;11.73;7.25;;;;;;;;;;5073929;28;20028;-71
2022/08/20 01:41:40;;;;;;;9.20;6.38;;;;;;;;;;5073963;28;20037;-71
2022/08/20 01:44:05;;;;;;;8.82;6.40;;;;;;;;;;5011018;28;20185;-71
2022/08/20 01:46:35;;;;;;;9.50;6.28;;;;;;;;;;5010208;28;20571;-71
2022/08/20 01:49:07;;;;;;;9.07;6.53;;;;;;;;;;5040834;28;20111;-71
2022/08/20 01:51:33;;;;;;;10.80;6.10;;;;;;;;;;5072561;28;20056;-71
2022/08/20 01:53:59;;;;;;;9.80;6.05;;;;;;;;;;5072531;28;20086;-71
2022/08/20 01:56:26;;;;;;;9.80;6.20;;;;;;;;;;5071529;28;20029;-71
2022/08/20 01:58:54;;;;;;;9.60;6.10;;;;;;;;;;5072573;28;20029;-72
2022/08/20 02:01:23;;;;;;;9.80;6.18;;;;;;;;;;5072994;28;20086;-71
2022/08/20 02:03:49;;;;;;;10.05;6.72;;;;;;;;;;5072523;28;20025;-71
2022/08/20 02:06:16;;;;;;;13.07;6.63;;;;;;;;;;5072201;28;20071;-71
2022/08/20 02:08:42;;;;;;;8.70;6.38;;;;;;;;;;5072289;28;20020;-71
2022/08/20 02:11:08;;;;;;;10.48;6.30;;;;;;;;;;5072961;28;20476;-72
2022/08/20 02:13:34;;;;;;;8.10;5.70;;;;;;;;;;5071247;28;20392;-72
2022/08/20 02:16:00;;;;;;;7.72;5.43;;;;;;;;;;5074126;28;20115;-72
2022/08/20 02:18:26;;;;;;;9.80;6.18;;;;;;;;;;5072949;28;20032;-71
2022/08/20 02:20:52;;;;;;;10.05;6.60;;;;;;;;;;5072198;28;20024;-71
2022/08/20 02:23:18;;;;;;;12.35;6.80;;;;;;;;;;5071260;28;20020;-69
2022/08/20 02:25:48;;;;;;;8.38;5.78;;;;;;;;;;5071513;28;20016;-72
2022/08/20 02:28:18;;;;;;;10.60;6.28;;;;;;;;;;5072088;28;20389;-72
2022/08/20 02:30:45;;;;;;;10.32;6.10;;;;;;;;;;5073109;28;20488;-72
2022/08/20 02:33:13;;;;;;;11.80;5.90;;;;;;;;;;5073861;28;20070;-71
2022/08/20 02:35:41;;;;;;;14.77;6.53;;;;;;;;;;5074189;28;20028;-72
2022/08/20 02:38:07;;;;;;;13.52;8.70;;;;;;;;;;5075182;28;20044;-72
2022/08/20 02:40:34;;;;;;;11.70;8.13;;;;;;;;;;5073010;28;20314;-72
2022/08/20 02:43:01;;;;;;;9.88;6.47;;;;;;;;;;5074015;28;20139;-72
2022/08/20 02:45:27;;;;;;;10.38;6.97;;;;;;;;;;5072263;28;20021;-71
2022/08/20 02:47:56;;;;;;;10.02;6.60;;;;;;;;;;5072715;28;20021;-72
2022/08/20 02:50:23;;;;;;;10.07;6.63;;;;;;;;;;5073508;28;20385;-72
2022/08/20 02:52:49;;;;;;;12.55;7.60;;;;;;;;;;5071576;28;20029;-70
2022/08/20 02:55:15;;;;;;;10.05;6.80;;;;;;;;;;5070794;28;20077;-71
2022/08/20 02:57:41;;;;;;;12.15;7.35;;;;;;;;;;5071245;28;20420;-72
2022/08/20 03:00:10;;;;;;;11.55;7.78;;;;;;;;;;5071601;28;20025;-71
2022/08/20 03:02:36;;;;;;;12.45;7.45;;;;;;;;;;5070988;28;20039;-71
2022/08/20 03:05:02;;;;;;;11.50;8.40;;;;;;;;;;5071095;28;20013;-72
2022/08/20 03:07:28;;;;;;;12.32;8.60;;;;;;;;;;5070918;28;20142;-71
2022/08/20 03:09:55;;;;;;;14.80;9.05;;;;;;;;;;5069405;28;20135;-70
2022/08/20 03:12:21;;;;;;;13.40;9.45;;;;;;;;;;5070743;28;20027;-71
2022/08/20 03:14:46;;;;;;;18.38;9.65;;;;;;;;;;5070655;28;20029;-74
2022/08/20 03:17:12;;;;;;;19.98;9.70;;;;;;;;;;5070942;28;20027;-71
2022/08/20 03:19:38;;;;;;;16.48;10.75;;;;;;;;;;5071194;28;20020;-70
2022/08/20 03:22:04;;;;;;;16.42;11.00;;;;;;;;;;5071141;28;20039;-71
2022/08/20 03:24:30;;;;;;;16.67;10.80;;;;;;;;;;5070905;28;20466;-72
2022/08/20 03:26:56;;;;;;;15.82;10.25;;;;;;;;;;5071072;28;20230;-72
2022/08/20 03:29:22;;;;;;;16.98;10.88;;;;;;;;;;5071253;28;20016;-70
2022/08/20 03:31:48;;;;;;;18.48;11.35;;;;;;;;;;5071272;28;20461;-71
2022/08/20 03:34:14;;;;;;;17.15;11.95;;;;;;;;;;5071886;28;20055;-72
2022/08/20 03:36:40;;;;;;;20.35;11.77;;;;;;;;;;5071737;28;20028;-71
2022/08/20 03:39:12;;;;;;;18.23;11.50;;;;;;;;;;5070896;28;20036;-71
2022/08/20 03:41:39;;;;;;;22.55;12.43;;;;;;;;;;5072438;28;20048;-71
2022/08/20 03:44:05;;;;;;;20.90;12.68;;;;;;;;;;5072604;28;20132;-71
2022/08/20 03:46:31;;;;;;;22.95;14.02;;;;;;;;;;5072452;28;20481;-70
2022/08/20 03:48:57;;;;;;;19.40;14.30;;;;;;;;;;5072508;28;20036;-72
2022/08/20 03:51:24;;;;;;;20.85;14.07;;;;;;;;;;5071938;28;20021;-70
2022/08/20 03:53:50;;;;;;;21.17;13.63;;;;;;;;;;5072344;28;20040;-71
2022/08/20 03:56:16;;;;;;;21.75;15.05;;;;;;;;;;5077412;28;20465;-72
2022/08/20 03:58:43;;;;;;;29.58;16.38;;;;;;;;;;5075925;28;20035;-72
2022/08/20 04:01:09;;;;;;;24.55;16.13;;;;;;;;;;5075368;28;20025;-71
2022/08/20 04:03:34;;;;;;;21.02;14.38;;;;;;;;;;5075500;28;20052;-71
2022/08/20 04:06:00;;;;;;;21.75;14.90;;;;;;;;;;5075065;28;20393;-71
2022/08/20 04:08:30;;;;;;;25.77;14.32;;;;;;;;;;5075212;28;20161;-72
2022/08/20 04:10:57;;;;;;;22.85;14.40;;;;;;;;;;5075190;28;20089;-71
2022/08/20 04:13:23;;;;;;;24.60;15.65;;;;;;;;;;5075074;28;20166;-71
2022/08/20 04:15:52;;;;;;;25.52;16.38;;;;;;;;;;5075422;28;20021;-71
2022/08/20 04:18:19;;;;;;;26.33;17.20;;;;;;;;;;5077681;28;20051;-72
2022/08/20 04:20:45;;;;;;;28.50;17.15;;;;;;;;;;5083231;28;20528;-71
2022/08/20 04:23:12;;;;;;;22.92;15.60;;;;;;;;;;5083513;28;20066;-71
2022/08/20 04:25:40;;;;;;;29.20;16.75;;;;;;;;;;5073648;28;20040;-72
2022/08/20 04:28:07;;;;;;;32.10;17.25;;;;;;;;;;5074979;28;20098;-72
2022/08/20 04:30:34;;;;;;;29.13;17.38;;;;;;;;;;5074783;28;20029;-72
2022/08/20 04:33:00;;;;;;;23.42;16.30;;;;;;;;;;5074780;28;20028;-72
2022/08/20 04:35:26;;;;;;;31.00;17.65;;;;;;;;;;5074650;28;20024;-73
2022/08/20 04:38:03;;;;;;;26.30;15.68;;;;;;;;;;5074772;28;20020;-73
2022/08/20 04:43:14;;;;;;;26.05;15.85;;;;;;;;;;5035347;28;20080;-75
2022/08/20 04:45:40;;;;;;;27.83;17.10;;;;;;;;;;5035477;28;20017;-74
2022/08/20 04:48:06;;;;;;;24.60;16.58;;;;;;;;;;5018039;28;20021;-75
2022/08/20 04:50:36;;;;;;;30.02;18.30;;;;;;;;;;5035347;28;20022;-74
2022/08/20 04:53:07;;;;;;;30.98;18.08;;;;;;;;;;5035163;28;20022;-73
2022/08/20 04:55:33;;;;;;;26.95;17.15;;;;;;;;;;5034797;28;20421;-74
2022/08/20 04:58:06;;;;;;;28.83;17.85;;;;;;;;;;5034707;28;20064;-75
2022/08/20 05:00:33;;;;;;;25.25;16.10;;;;;;;;;;5035583;28;20025;-75
2022/08/20 05:02:59;;;;;;;31.05;18.05;;;;;;;;;;5035512;28;20025;-74
2022/08/20 05:05:26;;;;;;;30.42;18.40;;;;;;;;;;5035000;28;20382;-74
2022/08/20 05:07:52;;;;;;;32.60;19.23;;;;;;;;;;5035476;28;20021;-75
2022/08/20 05:10:18;;;;;;;28.55;18.70;;;;;;;;;;5034974;28;20028;-77
2022/08/20 05:12:44;;;;;;;30.95;20.23;;;;;;;;;;5017748;28;20113;-74
2022/08/20 05:15:11;;;;;;;27.73;18.88;;;;;;;;;;5034721;28;20036;-73
2022/08/20 05:17:37;;;;;;;30.90;19.75;;;;;;;;;;5034971;28;20033;-73
2022/08/20 05:20:05;;;;;;;31.27;20.20;;;;;;;;;;5035472;28;20030;-72
2022/08/20 05:22:31;;;;;;;36.40;22.60;;;;;;;;;;5036061;28;20548;-73
2022/08/20 05:24:58;;;;;;;32.25;20.98;;;;;;;;;;5035952;28;20021;-75
2022/08/20 05:27:25;;;;;;;38.85;23.13;;;;;;;;;;5038998;28;20533;-75
2022/08/20 05:29:53;;;;;;;37.60;23.15;;;;;;;;;;5034605;28;20092;-73
2022/08/20 05:32:19;;;;;;;32.13;20.83;;;;;;;;;;5034789;28;20029;-74
2022/08/20 05:34:45;;;;;;;35.63;22.13;;;;;;;;;;5016858;28;20026;-73
2022/08/20 05:37:11;;;;;;;37.67;22.23;;;;;;;;;;5034686;28;20036;-73
2022/08/20 05:39:37;;;;;;;32.22;22.58;;;;;;;;;;5034587;28;20193;-73
2022/08/20 05:42:03;;;;;;;31.98;20.55;;;;;;;;;;5034883;28;20471;-74
2022/08/20 05:44:30;;;;;;;36.58;20.58;;;;;;;;;;5035429;28;20029;-74
2022/08/20 05:46:56;;;;;;;31.10;20.33;;;;;;;;;;5035037;28;20018;-73
2022/08/20 05:49:22;;;;;;;33.97;21.98;;;;;;;;;;5016728;28;20021;-73
2022/08/20 05:51:50;;;;;;;33.30;20.52;;;;;;;;;;5034806;28;20030;-74
2022/08/20 05:54:16;;;;;;;33.95;21.38;;;;;;;;;;5034789;28;20553;-73
2022/08/20 05:56:42;;;;;;;32.63;21.23;;;;;;;;;;5034451;28;20025;-74
2022/08/20 05:59:08;;;;;;;40.65;25.50;;;;;;;;;;5037190;28;20116;-74
2022/08/20 06:01:36;;;;;;;33.92;21.35;;;;;;;;;;5042817;28;20025;-73
2022/08/20 06:06:47;;;;;;;;;;;;;;;;;;5054893;28;20105;-72
2022/08/20 06:09:14;;;;;;;33.03;19.08;;;;;;;;;;5046718;28;19905;-72
2022/08/20 06:11:40;;;;;;;34.00;22.90;;;;;;;;;;5047485;28;20037;-72
2022/08/20 06:14:06;;;;;;;29.10;18.30;;;;;;;;;;5045078;28;20030;-73
2022/08/20 06:16:32;;;;;;;33.35;19.27;;;;;;;;;;5033568;28;20025;-73
2022/08/20 06:18:58;;;;;;;31.27;21.38;;;;;;;;;;5034052;28;20502;-75
2022/08/20 06:21:24;;;;;;;25.05;17.35;;;;;;;;;;5034533;28;20497;-75
2022/08/20 06:23:50;;;;;;;30.73;17.77;;;;;;;;;;5034301;28;20021;-74
2022/08/20 06:26:16;;;;;;;30.70;18.13;;;;;;;;;;5034250;28;20394;-76
2022/08/20 06:28:42;;;;;;;32.25;19.08;;;;;;;;;;5034720;28;20096;-74
2022/08/20 06:31:10;;;;;;;24.55;17.35;;;;;;;;;;5034650;28;20413;-74
2022/08/20 06:33:36;;;;;;;25.73;17.13;;;;;;;;;;5034554;28;20025;-74
2022/08/20 06:36:02;;;;;;;30.00;19.08;;;;;;;;;;5034585;28;20026;-75
2022/08/20 06:38:28;;;;;;;23.33;16.65;;;;;;;;;;5036675;28;20032;-75
2022/08/20 06:40:53;;;;;;;26.13;18.73;;;;;;;;;;5038321;28;20541;-73
2022/08/20 06:43:20;;;;;;;27.13;17.83;;;;;;;;;;5045823;28;20474;-76
2022/08/20 06:45:46;;;;;;;25.85;16.42;;;;;;;;;;5016233;28;20112;-74
2022/08/20 06:48:13;;;;;;;28.05;16.55;;;;;;;;;;5038299;28;20053;-73
2022/08/20 06:50:41;;;;;;;28.02;15.20;;;;;;;;;;5041024;28;20029;-72
2022/08/20 06:53:07;;;;;;;23.63;15.68;;;;;;;;;;5033935;28;20437;-72
2022/08/20 06:55:34;;;;;;;23.67;14.63;;;;;;;;;;5034826;28;20301;-73
2022/08/20 06:58:01;;;;;;;20.48;13.30;;;;;;;;;;5034312;28;20037;-73
2022/08/20 07:00:29;;;;;;;20.90;12.30;;;;;;;;;;5034565;28;20037;-74
2022/08/20 07:02:56;;;;;;;22.75;12.88;;;;;;;;;;5038295;28;20029;-73
2022/08/20 07:05:22;;;;;;;20.05;13.05;;;;;;;;;;5046549;28;20022;-71
2022/08/20 07:07:49;;;;;;;16.98;10.68;;;;;;;;;;5047385;28;20083;-72
2022/08/20 07:10:17;;;;;;;17.10;10.15;;;;;;;;;;5039032;28;20383;-75
2022/08/20 07:12:45;;;;;;;16.10;8.50;;;;;;;;;;5033873;28;20026;-73
2022/08/20 07:15:12;;;;;;;20.13;9.60;;;;;;;;;;5033281;28;20471;-73
2022/08/20 07:17:38;;;;;;;15.68;8.65;;;;;;;;;;5032857;28;20029;-74
2022/08/20 07:20:05;;;;;;;17.10;8.23;;;;;;;;;;5033023;28;20397;-73
2022/08/20 07:22:35;;;;;;;18.58;8.07;;;;;;;;;;5032978;28;20442;-75
2022/08/20 07:25:01;;;;;;;12.55;7.80;;;;;;;;;;5017362;28;20022;-75
2022/08/20 07:27:27;;;;;;;16.92;7.85;;;;;;;;;;5040836;28;20032;-73
2022/08/20 07:32:38;;;;;;;;;;;;;;;;;;5047628;28;20025;-74
2022/08/20 07:35:05;;;;;;;14.70;6.25;;;;;;;;;;5049233;28;19968;-74
2022/08/20 07:37:32;;;;;;;14.05;6.32;;;;;;;;;;5032181;28;20025;-77
2022/08/20 07:39:58;;;;;;;13.50;5.75;;;;;;;;;;5048844;28;20057;-73
2022/08/20 07:42:24;;;;;;;10.20;4.65;;;;;;;;;;5028284;28;20398;-77
2022/08/20 07:44:51;;;;;;;11.45;5.85;;;;;;;;;;5029282;28;20056;-76
2022/08/20 07:47:18;;;;;;;11.77;5.35;;;;;;;;;;5050499;28;20032;-74
2022/08/20 07:49:44;;;;;;;14.88;7.28;;;;;;;;;;5047701;28;20025;-73
2022/08/20 07:52:10;;;;;;;16.48;7.90;;;;;;;;;;5042771;28;20021;-75
2022/08/20 07:54:37;;;;;;;15.55;6.53;;;;;;;;;;5037240;28;20463;-73
2022/08/20 07:57:03;;;;;;;28.58;9.52;;;;;;;;;;5023294;28;20481;-77
2022/08/20 07:59:30;;;;;;;21.10;7.88;;;;;;;;;;5039507;28;20087;-74
2022/08/20 08:01:55;;;;;;;22.42;9.43;;;;;;;;;;5035026;28;20041;-74
2022/08/20 08:04:23;;;;;;;13.05;5.22;;;;;;;;;;5033769;28;20030;-74
2022/08/20 08:06:49;;;;;;;23.90;9.65;;;;;;;;;;5034037;28;20040;-75
2022/08/20 08:09:15;;;;;;;19.48;7.00;;;;;;;;;;5032719;28;20029;-74
2022/08/20 08:11:43;;;;;;;18.10;8.45;;;;;;;;;;5033379;28;20577;-75
2022/08/20 08:14:10;;;;;;;19.60;7.88;;;;;;;;;;5015054;28;20414;-74
2022/08/20 08:16:37;;;;;;;21.90;6.10;;;;;;;;;;5033555;28;20037;-75
2022/08/20 08:19:05;;;;;;;25.77;8.57;;;;;;;;;;5035873;28;20034;-75
2022/08/20 08:21:31;;;;;;;35.40;14.52;;;;;;;;;;5021408;28;20026;-73
2022/08/20 08:23:57;;;;;;;32.42;13.25;;;;;;;;;;5037338;28;20508;-74
2022/08/20 08:26:25;;;;;;;30.02;9.77;;;;;;;;;;5038739;28;20033;-74
2022/08/20 08:28:51;;;;;;;9.88;3.60;;;;;;;;;;5040518;28;20017;-74
2022/08/20 08:31:16;;;;;;;20.52;9.50;;;;;;;;;;5036917;28;20390;-74
2022/08/20 08:33:42;;;;;;;12.90;5.10;;;;;;;;;;5033176;28;20030;-75
2022/08/20 08:36:13;;;;;;;35.08;14.95;;;;;;;;;;5031967;28;20030;-74
2022/08/20 08:38:41;;;;;;;12.57;2.88;;;;;;;;;;5033207;28;20036;-75
2022/08/20 08:41:13;;;;;;;15.13;5.53;;;;;;;;;;5035662;28;20037;-75
2022/08/20 08:43:39;;;;;;;11.10;2.72;;;;;;;;;;5035292;28;20109;-73
2022/08/20 08:46:07;;;;;;;13.75;4.65;;;;;;;;;;5042282;28;20029;-76
2022/08/20 08:48:35;;;;;;;11.57;3.58;;;;;;;;;;5036829;28;20014;-73
2022/08/20 08:51:03;;;;;;;11.60;3.03;;;;;;;;;;5019847;28;20029;-73
2022/08/20 08:53:36;;;;;;;17.67;5.40;;;;;;;;;;5036333;28;20026;-74
2022/08/20 08:56:05;;;;;;;13.15;3.20;;;;;;;;;;5017715;28;20113;-74
2022/08/20 08:58:34;;;;;;;12.38;4.90;;;;;;;;;;5036625;28;20382;-72
2022/08/20 09:01:04;;;;;;;14.25;5.32;;;;;;;;;;5037902;28;20021;-72
2022/08/20 09:03:32;;;;;;;13.88;3.63;;;;;;;;;;5036496;28;20108;-73
2022/08/20 09:05:59;;;;;;;12.70;3.55;;;;;;;;;;5035857;28;20486;-72
2022/08/20 09:08:28;;;;;;;15.25;3.13;;;;;;;;;;5036457;28;20025;-73
2022/08/20 09:10:54;;;;;;;19.88;2.97;;;;;;;;;;5037669;28;20400;-73
2022/08/20 09:13:21;;;;;;;14.90;3.10;;;;;;;;;;5036357;28;20028;-72
2022/08/20 09:15:47;;;;;;;9.90;2.85;;;;;;;;;;5036338;28;20398;-73
2022/08/20 09:18:12;;;;;;;13.73;3.22;;;;;;;;;;5036423;28;20033;-72
2022/08/20 09:20:38;;;;;;;17.95;4.18;;;;;;;;;;5037199;28;20097;-72
2022/08/20 09:23:05;;;;;;;12.50;3.00;;;;;;;;;;5039554;28;20032;-72
2022/08/20 09:25:31;;;;;;;13.73;3.38;;;;;;;;;;5036735;28;20083;-72
2022/08/20 09:27:57;;;;;;;13.77;3.50;;;;;;;;;;5035793;28;20057;-73
2022/08/20 09:30:23;;;;;;;13.93;3.15;;;;;;;;;;5036235;28;20029;-71
2022/08/20 09:32:49;;;;;;;15.98;2.95;;;;;;;;;;5034892;28;20528;-72
2022/08/20 09:35:15;;;;;;;13.57;3.88;;;;;;;;;;5034658;28;20041;-71
2022/08/20 09:37:41;;;;;;;14.18;2.90;;;;;;;;;;5036084;28;20033;-74
2022/08/20 09:40:08;;;;;;;15.05;3.20;;;;;;;;;;5035680;28;20041;-73
2022/08/20 09:42:35;;;;;;;13.57;2.90;;;;;;;;;;5037628;28;20025;-73
2022/08/20 09:45:01;;;;;;;11.52;2.60;;;;;;;;;;5038808;28;20080;-73
2022/08/20 09:47:27;;;;;;;18.73;3.28;;;;;;;;;;5039386;28;20101;-72
2022/08/20 09:49:53;;;;;;;15.70;3.35;;;;;;;;;;5020757;28;20034;-72
2022/08/20 09:52:22;;;;;;;13.80;3.92;;;;;;;;;;5036743;28;20018;-72
2022/08/20 09:54:48;;;;;;;14.35;3.20;;;;;;;;;;5036291;28;20037;-72
2022/08/20 09:57:14;;;;;;;15.48;3.33;;;;;;;;;;5034945;28;20418;-75
2022/08/20 09:59:40;;;;;;;14.70;4.03;;;;;;;;;;5034641;28;20109;-74
2022/08/20 10:02:06;;;;;;;19.77;4.35;;;;;;;;;;5035165;28;20025;-73
2022/08/20 10:04:32;;;;;;;27.48;5.13;;;;;;;;;;5034195;28;20393;-74
2022/08/20 10:06:59;;;;;;;18.23;3.90;;;;;;;;;;5016792;28;20033;-74
2022/08/20 10:09:25;;;;;;;16.35;3.30;;;;;;;;;;5035179;28;20017;-73
2022/08/20 10:11:51;;;;;;;17.17;3.47;;;;;;;;;;5034887;28;20032;-74
2022/08/20 10:14:16;;;;;;;15.20;3.28;;;;;;;;;;5018372;28;20029;-73
2022/08/20 10:16:42;;;;;;;13.70;2.55;;;;;;;;;;5035656;28;20033;-72
2022/08/20 10:19:08;;;;;;;17.33;3.35;;;;;;;;;;5017002;28;20029;-73
2022/08/20 10:21:34;;;;;;;15.07;3.85;;;;;;;;;;5034699;28;20433;-72
2022/08/20 10:24:00;;;;;;;15.90;3.20;;;;;;;;;;5016428;28;20039;-73
2022/08/20 10:26:26;;;;;;;13.25;3.53;;;;;;;;;;5034253;28;20034;-72
2022/08/20 10:28:52;;;;;;;19.35;3.88;;;;;;;;;;5035209;28;20093;-73
2022/08/20 10:31:18;;;;;;;17.33;4.20;;;;;;;;;;5026652;28;20021;-72
2022/08/20 10:33:44;;;;;;;19.60;4.35;;;;;;;;;;5037544;28;20021;-72
2022/08/20 10:36:12;;;;;;;14.98;3.42;;;;;;;;;;5036457;28;20033;-72
2022/08/20 10:38:38;;;;;;;10.93;2.72;;;;;;;;;;5033995;28;20096;-73
2022/08/20 10:41:04;;;;;;;14.68;3.33;;;;;;;;;;5077592;22;20129;-73
2022/08/20 10:43:30;;;;;;;15.07;3.38;;;;;;;;;;5072483;28;20062;-72
2022/08/20 10:45:57;;;;;;;20.38;5.00;;;;;;;;;;5072350;28;20032;-72
2022/08/20 10:48:23;;;;;;;15.23;4.40;;;;;;;;;;5072966;28;20028;-72
2022/08/20 10:50:49;;;;;;;12.05;3.10;;;;;;;;;;5078329;28;20042;-71
2022/08/20 10:53:15;;;;;;;14.25;2.67;;;;;;;;;;5072653;28;20078;-71
2022/08/20 10:55:41;;;;;;;16.48;2.83;;;;;;;;;;5072948;28;20543;-73
2022/08/20 10:58:07;;;;;;;14.00;2.63;;;;;;;;;;5074000;28;20024;-73
2022/08/20 11:00:34;;;;;;;17.38;2.60;;;;;;;;;;5074489;28;20512;-72
2022/08/20 11:03:00;;;;;;;15.38;2.90;;;;;;;;;;5073646;28;20123;-72
2022/08/20 11:05:26;;;;;;;15.82;3.00;;;;;;;;;;5073276;28;20021;-72
2022/08/20 11:07:53;;;;;;;20.05;3.47;;;;;;;;;;5072466;28;20024;-72
2022/08/20 11:10:20;;;;;;;11.38;3.15;;;;;;;;;;5073973;28;20040;-73
2022/08/20 11:12:46;;;;;;;9.18;2.50;;;;;;;;;;5074892;28;20020;-72
2022/08/20 11:15:12;;;;;;;15.00;2.65;;;;;;;;;;5072898;28;20203;-72
2022/08/20 11:17:40;;;;;;;11.93;2.50;;;;;;;;;;5073484;28;20649;-72
2022/08/20 11:20:06;;;;;;;17.73;3.55;;;;;;;;;;5073173;28;20021;-72
2022/08/20 11:22:33;;;;;;;16.63;2.90;;;;;;;;;;5072261;28;20031;-72
2022/08/20 11:24:58;;;;;;;17.92;3.33;;;;;;;;;;5073588;28;20024;-73
2022/08/20 11:27:29;;;;;;;14.02;2.58;;;;;;;;;;5071824;28;20081;-72
2022/08/20 11:29:56;;;;;;;14.32;2.45;;;;;;;;;;5072218;28;20032;-72
2022/08/20 11:32:22;;;;;;;18.00;2.67;;;;;;;;;;5073226;28;20025;-71
2022/08/20 11:34:48;;;;;;;13.57;2.20;;;;;;;;;;5073143;28;20028;-72
2022/08/20 11:37:16;;;;;;;9.68;2.20;;;;;;;;;;5076250;28;20323;-73
2022/08/20 11:39:42;;;;;;;13.80;2.97;;;;;;;;;;5076264;28;20032;-76
2022/08/20 11:42:08;;;;;;;14.38;2.65;;;;;;;;;;5074419;28;20424;-73
2022/08/20 11:44:34;;;;;;;12.85;2.42;;;;;;;;;;5073467;28;20040;-72
2022/08/20 11:47:02;;;;;;;12.45;2.65;;;;;;;;;;5071150;28;20036;-72
2022/08/20 11:49:28;;;;;;;14.65;2.20;;;;;;;;;;5071691;28;20428;-72
2022/08/20 11:51:54;;;;;;;15.35;2.22;;;;;;;;;;5072654;28;20030;-72
2022/08/20 11:54:20;;;;;;;13.00;2.42;;;;;;;;;;5072795;28;20112;-73
2022/08/20 11:56:46;;;;;;;13.45;2.92;;;;;;;;;;5072443;28;20028;-72
2022/08/20 11:59:12;;;;;;;13.30;2.55;;;;;;;;;;5072132;28;20028;-71
2022/08/20 12:01:38;;;;;;;7.78;1.67;;;;;;;;;;5075190;28;20378;-72
2022/08/20 12:04:04;;;;;;;11.70;2.00;;;;;;;;;;5071935;28;20025;-72
2022/08/20 12:06:30;;;;;;;12.88;1.90;;;;;;;;;;5072364;28;20017;-72
2022/08/20 12:08:56;;;;;;;22.60;2.70;;;;;;;;;;5073474;28;20032;-75
2022/08/20 12:11:22;;;;;;;9.98;1.98;;;;;;;;;;5075128;28;20021;-72
2022/08/20 12:13:48;;;;;;;9.85;2.15;;;;;;;;;;5072575;28;20468;-72
2022/08/20 12:16:14;;;;;;;7.63;1.85;;;;;;;;;;5076636;28;20104;-75
2022/08/20 12:18:40;;;;;;;13.95;2.00;;;;;;;;;;5078967;28;20025;-71
2022/08/20 12:21:06;;;;;;;8.20;1.75;;;;;;;;;;5077513;28;20469;-72
2022/08/20 12:23:32;;;;;;;19.33;8.52;;;;;;;;;;5075883;28;20074;-72
2022/08/20 12:26:01;;;;;;;8.82;2.13;;;;;;;;;;5076194;28;20485;-72
2022/08/20 12:28:27;;;;;;;14.18;2.10;;;;;;;;;;5075725;28;20017;-72
2022/08/20 12:30:53;;;;;;;9.50;1.85;;;;;;;;;;5076706;28;20020;-73
2022/08/20 12:33:19;;;;;;;14.73;2.22;;;;;;;;;;5075545;28;20024;-73
2022/08/20 12:35:45;;;;;;;7.50;1.92;;;;;;;;;;5075396;28;20434;-72
2022/08/20 12:38:11;;;;;;;7.30;1.92;;;;;;;;;;5076444;28;20420;-71
2022/08/20 12:40:37;;;;;;;14.57;2.38;;;;;;;;;;5075738;28;20536;-70
2022/08/20 12:43:04;;;;;;;13.32;2.58;;;;;;;;;;5078206;28;20032;-71
2022/08/20 12:45:30;;;;;;;7.07;2.28;;;;;;;;;;5075778;28;20051;-72
2022/08/20 12:48:05;;;;;;;8.75;1.70;;;;;;;;;;5074723;28;20063;-72
2022/08/20 12:50:31;;;;;;;8.65;1.70;;;;;;;;;;5077957;28;20025;-71
2022/08/20 12:53:00;;;;;;;7.72;1.90;;;;;;;;;;5083184;28;20021;-71
2022/08/20 12:55:26;;;;;;;12.52;1.88;;;;;;;;;;5076839;28;20032;-71
2022/08/20 12:57:55;;;;;;;13.40;2.47;;;;;;;;;;5078306;28;20107;-71
2022/08/20 13:00:29;;;;;;;8.50;1.77;;;;;;;;;;5077020;28;20025;-71
2022/08/20 13:02:56;;;;;;;9.00;1.88;;;;;;;;;;5075217;28;20024;-71
2022/08/20 13:05:22;;;;;;;10.57;1.73;;;;;;;;;;5075581;28;20496;-71
2022/08/20 13:07:48;;;;;;;10.02;2.35;;;;;;;;;;5074837;28;20070;-73
2022/08/20 13:10:33;;;;;;;10.60;1.67;;;;;;;;;;5074486;28;20099;-72
2022/08/20 13:13:02;;;;;;;13.30;2.35;;;;;;;;;;5075071;28;20082;-71
2022/08/20 13:15:30;;;;;;;8.30;1.77;;;;;;;;;;5073908;28;20478;-71
2022/08/20 13:17:57;;;;;;;9.73;1.90;;;;;;;;;;5074260;28;20024;-71
2022/08/20 13:20:26;;;;;;;10.82;1.65;;;;;;;;;;5073917;28;20025;-71
2022/08/20 13:22:53;;;;;;;7.88;1.90;;;;;;;;;;5073846;28;20031;-71
2022/08/20 13:25:19;;;;;;;10.20;2.00;;;;;;;;;;5073895;28;20017;-72
2022/08/20 13:27:45;;;;;;;8.18;2.05;;;;;;;;;;5073919;28;20024;-72
2022/08/20 13:30:14;;;;;;;8.82;2.10;;;;;;;;;;5074397;28;20081;-72
2022/08/20 13:32:41;;;;;;;9.18;2.22;;;;;;;;;;5076579;28;20029;-71
2022/08/20 13:35:07;;;;;;;7.35;1.95;;;;;;;;;;5074939;28;20036;-72
2022/08/20 13:37:34;;;;;;;8.65;2.00;;;;;;;;;;5073857;28;20107;-71
2022/08/20 13:40:00;;;;;;;9.40;1.98;;;;;;;;;;5075166;28;20046;-73
2022/08/20 13:42:26;;;;;;;6.90;2.00;;;;;;;;;;5079674;28;20496;-73
2022/08/20 13:44:53;;;;;;;6.60;1.98;;;;;;;;;;5078659;28;20055;-73
2022/08/20 13:47:26;;;;;;;8.52;2.10;;;;;;;;;;5072316;28;20366;-73
2022/08/20 13:49:52;;;;;;;;;;;;;;;;;;5075294;28;20028;-73
2022/08/20 13:52:18;;;;;;;11.18;1.88;;;;;;;;;;5075759;28;19910;-72
2022/08/20 13:54:44;;;;;;;6.50;1.55;;;;;;;;;;5073696;28;20453;-72
2022/08/20 13:57:12;;;;;;;9.75;1.95;;;;;;;;;;5073424;28;20558;-72
2022/08/20 13:59:39;;;;;;;9.20;2.13;;;;;;;;;;5073657;28;20362;-72
2022/08/20 14:02:05;;;;;;;8.02;1.88;;;;;;;;;;5072555;28;20025;-76
2022/08/20 14:04:31;;;;;;;5.78;1.77;;;;;;;;;;5073314;28;20111;-76
2022/08/20 14:06:57;;;;;;;9.00;2.00;;;;;;;;;;5073474;28;20028;-75
2022/08/20 14:09:23;;;;;;;8.88;1.92;;;;;;;;;;5074244;28;20032;-75
2022/08/20 14:11:49;;;;;;;8.60;1.75;;;;;;;;;;5074056;28;20020;-76
2022/08/20 14:14:15;;;;;;;8.13;2.25;;;;;;;;;;5072830;28;20031;-74
2022/08/20 14:16:41;;;;;;;7.68;1.90;;;;;;;;;;5070887;28;20025;-73
2022/08/20 14:19:07;;;;;;;7.32;1.85;;;;;;;;;;5073007;28;20051;-73
2022/08/20 14:21:33;;;;;;;7.47;1.70;;;;;;;;;;5073590;28;20020;-71
2022/08/20 14:24:00;;;;;;;8.07;1.75;;;;;;;;;;5073393;28;20030;-72
2022/08/20 14:26:26;;;;;;;7.18;2.00;;;;;;;;;;5072562;28;20043;-74
2022/08/20 14:28:52;;;;;;;8.27;1.98;;;;;;;;;;5073084;28;20063;-73
2022/08/20 14:31:18;;;;;;;3.85;1.60;;;;;;;;;;5073324;28;20021;-73
2022/08/20 14:33:44;;;;;;;7.93;2.00;;;;;;;;;;5073447;28;20028;-74